Time;durP1;ratioP1;P1;durP2;ratioP2;P2;SDS_P1;SDS_P2;PMS_P1;PMS_P2;Temp;Humidity;BMP_temperature;BMP_pressure;BME280_temperature;BME280_humidity;BME280_pressure;Samples;Min_cycle;Max_cycle;Signal;HPM_P1;HPM_P2
2023/12/07 00:00:51;;;;;;;;;;;;;;;;;;4983546;28;58432;-74
2023/12/07 00:03:17;;;;;;;;;;;;;;;;;;4980824;28;59377;-73
2023/12/07 00:05:42;;;;;;;;;;;;;;;;;;4980433;28;59587;-73
2023/12/07 00:08:07;;;;;;;;;;;;;;;;;;4981621;28;58657;-74
2023/12/07 00:10:32;;;;;;;;;;;;;;;;;;4982920;28;59267;-73
2023/12/07 00:12:57;;;;;;;;;;;;;;;;;;4983406;28;58903;-74
2023/12/07 00:15:22;;;;;;;;;;;;;;;;;;4983618;28;58382;-73
2023/12/07 00:17:47;;;;;;;;;;;;;;;;;;4981548;28;59267;-73
2023/12/07 00:20:12;;;;;;;;;;;;;;;;;;4983462;28;58359;-73
2023/12/07 00:22:37;;;;;;;;;;;;;;;;;;4981538;28;59462;-73
2023/12/07 00:25:02;;;;;;;;;;;;;;;;;;4983316;28;58953;-70
2023/12/07 00:27:27;;;;;;;;;;;;;;;;;;4983074;28;58427;-71
2023/12/07 00:29:53;;;;;;;;;;;;;;;;;;4982116;28;60270;-70
2023/12/07 00:32:18;;;;;;;;;;;;;;;;;;4981953;28;58963;-70
2023/12/07 00:34:43;;;;;;;;;;;;;;;;;;4981817;28;58383;-74
2023/12/07 00:37:08;;;;;;;;;;;;;;;;;;4983732;28;59763;-73
2023/12/07 00:39:33;;;;;;;;;;;;;;;;;;4982320;28;58901;-73
2023/12/07 00:41:58;;;;;;;;;;;;;;;;;;4978618;28;59449;-74
2023/12/07 00:44:23;;;;;;;;;;;;;;;;;;4980400;28;58752;-73
2023/12/07 00:46:49;;;;;;;;;;;;;;;;;;4980830;28;58519;-74
2023/12/07 00:49:14;;;;;;;;;;;;;;;;;;4979554;28;59308;-73
2023/12/07 00:51:39;;;;;;;;;;;;;;;;;;4981624;28;58466;-73
2023/12/07 00:54:04;;;;;;;;;;;;;;;;;;4980128;28;58311;-73
2023/12/07 00:56:29;;;;;;;;;;;;;;;;;;4979591;28;59589;-72
2023/12/07 00:58:54;;;;;;;;;;;;;;;;;;4979004;28;58924;-73
2023/12/07 01:01:19;;;;;;;;;;;;;;;;;;4981273;28;59362;-72
2023/12/07 01:03:44;;;;;;;;;;;;;;;;;;4979542;28;59953;-74
2023/12/07 01:06:13;;;;;;;;;;;;;;;;;;4979685;28;58274;-73
2023/12/07 01:08:38;;;;;;;;;;;;;;;;;;4979272;28;59907;-74
2023/12/07 01:11:03;;;;;;;;;;;;;;;;;;4979283;28;58636;-73
2023/12/07 01:13:28;;;;;;;;;;;;;;;;;;4981612;28;58360;-73
2023/12/07 01:15:53;;;;;;;;;;;;;;;;;;4981907;28;59213;-73
2023/12/07 01:18:18;;;;;;;;;;;;;;;;;;4976695;28;58905;-73
2023/12/07 01:20:43;;;;;;;;;;;;;;;;;;4980324;28;58458;-74
2023/12/07 01:23:09;;;;;;;;;;;;;;;;;;4980919;28;58930;-73
2023/12/07 01:25:34;;;;;;;;;;;;;;;;;;4980631;28;58656;-73
2023/12/07 01:27:59;;;;;;;;;;;;;;;;;;4980677;28;59412;-73
2023/12/07 01:30:24;;;;;;;;;;;;;;;;;;4979142;28;57905;-73
2023/12/07 01:32:49;;;;;;;;;;;;;;;;;;4979797;28;58506;-73
2023/12/07 01:35:14;;;;;;;;;;;;;;;;;;4981501;28;60340;-73
2023/12/07 01:37:39;;;;;;;;;;;;;;;;;;4979711;28;58871;-73
2023/12/07 01:40:10;;;;;;;;;;;;;;;;;;4978197;28;58386;-73
2023/12/07 01:42:35;;;;;;;;;;;;;;;;;;4982188;28;58758;-72
2023/12/07 01:45:00;;;;;;;;;;;;;;;;;;4982486;28;58377;-72
2023/12/07 01:47:25;;;;;;;;;;;;;;;;;;4979058;28;59475;-73
2023/12/07 01:49:50;;;;;;;;;;;;;;;;;;4979424;28;58859;-73
2023/12/07 01:52:15;;;;;;;;;;;;;;;;;;4979966;28;58514;-72
2023/12/07 01:54:40;;;;;;;;;;;;;;;;;;4979570;28;59608;-73
2023/12/07 01:57:05;;;;;;;;;;;;;;;;;;4978471;28;58818;-74
2023/12/07 01:59:30;;;;;;;;;;;;;;;;;;4980894;28;58383;-72
2023/12/07 02:01:55;;;;;;;;;;;;;;;;;;4978440;28;59406;-74
2023/12/07 02:04:21;;;;;;;;;;;;;;;;;;4978844;28;58977;-73
2023/12/07 02:06:46;;;;;;;;;;;;;;;;;;4979230;28;58419;-73
2023/12/07 02:09:11;;;;;;;;;;;;;;;;;;4979080;28;58664;-73
2023/12/07 02:11:36;;;;;;;;;;;;;;;;;;4981120;28;58487;-73
2023/12/07 02:14:01;;;;;;;;;;;;;;;;;;4982246;28;59834;-73
2023/12/07 02:16:26;;;;;;;;;;;;;;;;;;4981618;28;58794;-73
2023/12/07 02:18:51;;;;;;;;;;;;;;;;;;4980489;28;58446;-72
2023/12/07 02:21:17;;;;;;;;;;;;;;;;;;4979573;28;59433;-72
2023/12/07 02:23:42;;;;;;;;;;;;;;;;;;4979861;28;58491;-74
2023/12/07 02:26:07;;;;;;;;;;;;;;;;;;4983388;28;58456;-75
2023/12/07 02:28:32;;;;;;;;;;;;;;;;;;4978453;28;57953;-72
2023/12/07 02:30:57;;;;;;;;;;;;;;;;;;4982354;28;58298;-73
2023/12/07 02:33:22;;;;;;;;;;;;;;;;;;4980890;28;58442;-76
2023/12/07 02:35:47;;;;;;;;;;;;;;;;;;4979025;28;58840;-73
2023/12/07 02:38:12;;;;;;;;;;;;;;;;;;4979681;28;58363;-73
2023/12/07 02:40:37;;;;;;;;;;;;;;;;;;4980562;28;59274;-73
2023/12/07 02:43:03;;;;;;;;;;;;;;;;;;4980343;28;59921;-74
2023/12/07 02:45:28;;;;;;;;;;;;;;;;;;4979929;28;58531;-73
2023/12/07 02:47:53;;;;;;;;;;;;;;;;;;4978348;28;60242;-74
2023/12/07 02:50:18;;;;;;;;;;;;;;;;;;4978342;28;58479;-73
2023/12/07 02:52:43;;;;;;;;;;;;;;;;;;4978644;28;59474;-75
2023/12/07 02:55:09;;;;;;;;;;;;;;;;;;4979165;28;58573;-71
2023/12/07 02:57:34;;;;;;;;;;;;;;;;;;4978952;28;58569;-72
2023/12/07 02:59:59;;;;;;;;;;;;;;;;;;4981574;28;60344;-71
2023/12/07 03:02:24;;;;;;;;;;;;;;;;;;4979756;28;59015;-71
2023/12/07 03:04:49;;;;;;;;;;;;;;;;;;4980108;28;57930;-71
2023/12/07 03:07:14;;;;;;;;;;;;;;;;;;4979216;28;58693;-71
2023/12/07 03:09:39;;;;;;;;;;;;;;;;;;4981298;28;58297;-72
2023/12/07 03:12:04;;;;;;;;;;;;;;;;;;4980384;28;59244;-72
2023/12/07 03:14:29;;;;;;;;;;;;;;;;;;4977241;28;60211;-71
2023/12/07 03:16:54;;;;;;;;;;;;;;;;;;4979665;28;58426;-72
2023/12/07 03:19:19;;;;;;;;;;;;;;;;;;4980817;28;59399;-72
2023/12/07 03:21:45;;;;;;;;;;;;;;;;;;4983090;28;58779;-71
2023/12/07 03:24:10;;;;;;;;;;;;;;;;;;4980612;28;58666;-72
2023/12/07 03:26:35;;;;;;;;;;;;;;;;;;4981966;28;59513;-71
2023/12/07 03:29:00;;;;;;;;;;;;;;;;;;4983296;28;60673;-71
2023/12/07 03:31:25;;;;;;;;;;;;;;;;;;4981902;28;58745;-72
2023/12/07 03:33:50;;;;;;;;;;;;;;;;;;4981395;28;58832;-71
2023/12/07 03:36:16;;;;;;;;;;;;;;;;;;4982521;28;58407;-73
2023/12/07 03:38:41;;;;;;;;;;;;;;;;;;4981709;28;59415;-71
2023/12/07 03:41:06;;;;;;;;;;;;;;;;;;4981166;28;60018;-72
2023/12/07 03:43:31;;;;;;;;;;;;;;;;;;4982044;28;58434;-72
2023/12/07 03:45:57;;;;;;;;;;;;;;;;;;4984299;28;59327;-72
2023/12/07 03:48:22;;;;;;;;;;;;;;;;;;4978093;28;58862;-71
2023/12/07 03:50:47;;;;;;;;;;;;;;;;;;4983800;28;58354;-71
2023/12/07 03:53:12;;;;;;;;;;;;;;;;;;4979867;28;58608;-72
2023/12/07 03:55:37;;;;;;;;;;;;;;;;;;4981232;28;58601;-71
2023/12/07 03:58:02;;;;;;;;;;;;;;;;;;4984128;28;60379;-72
2023/12/07 04:00:27;;;;;;;;;;;;;;;;;;4984347;28;58838;-71
2023/12/07 04:02:52;;;;;;;;;;;;;;;;;;4982958;28;58462;-71
2023/12/07 04:05:17;;;;;;;;;;;;;;;;;;4984975;28;58485;-70
2023/12/07 04:07:43;;;;;;;;;;;;;;;;;;4985737;28;58944;-71
2023/12/07 04:10:08;;;;;;;;;;;;;;;;;;4982864;28;58872;-70
2023/12/07 04:12:33;;;;;;;;;;;;;;;;;;4983699;28;59341;-70
2023/12/07 04:14:58;;;;;;;;;;;;;;;;;;4980289;28;58398;-75
2023/12/07 04:17:23;;;;;;;;;;;;;;;;;;4973190;28;59215;-74
2023/12/07 04:19:48;;;;;;;;;;;;;;;;;;4982429;28;58921;-75
2023/12/07 04:22:13;;;;;;;;;;;;;;;;;;4982780;28;58659;-75
2023/12/07 04:24:38;;;;;;;;;;;;;;;;;;4984786;28;59424;-75
2023/12/07 04:27:03;;;;;;;;;;;;;;;;;;4981448;28;58801;-75
2023/12/07 04:29:28;;;;;;;;;;;;;;;;;;4981943;28;58335;-75
2023/12/07 04:31:53;;;;;;;;;;;;;;;;;;4983694;28;59898;-74
2023/12/07 04:34:19;;;;;;;;;;;;;;;;;;4981651;28;58610;-75
2023/12/07 04:36:44;;;;;;;;;;;;;;;;;;4983667;28;59687;-74
2023/12/07 04:39:09;;;;;;;;;;;;;;;;;;4982312;28;59914;-74
2023/12/07 04:41:34;;;;;;;;;;;;;;;;;;4981900;28;58420;-75
2023/12/07 04:43:59;;;;;;;;;;;;;;;;;;4981179;28;59576;-75
2023/12/07 04:46:24;;;;;;;;;;;;;;;;;;4980796;28;58890;-75
2023/12/07 04:48:49;;;;;;;;;;;;;;;;;;4981996;28;58438;-75
2023/12/07 04:51:14;;;;;;;;;;;;;;;;;;4979406;28;59403;-75
2023/12/07 04:53:39;;;;;;;;;;;;;;;;;;4977295;28;58962;-74
2023/12/07 04:56:04;;;;;;;;;;;;;;;;;;4983352;28;57866;-74
2023/12/07 04:58:29;;;;;;;;;;;;;;;;;;4977172;28;58858;-75
2023/12/07 05:00:55;;;;;;;;;;;;;;;;;;4981010;28;58486;-74
2023/12/07 05:03:20;;;;;;;;;;;;;;;;;;4980762;28;58571;-74
2023/12/07 05:05:45;;;;;;;;;;;;;;;;;;4980708;28;59212;-74
2023/12/07 05:08:10;;;;;;;;;;;;;;;;;;4983159;28;58366;-75
2023/12/07 05:10:35;;;;;;;;;;;;;;;;;;4981597;28;58635;-74
2023/12/07 05:13:01;;;;;;;;;;;;;;;;;;4982506;28;59580;-75
2023/12/07 05:15:26;;;;;;;;;;;;;;;;;;4985481;28;58376;-71
2023/12/07 05:17:51;;;;;;;;;;;;;;;;;;4981819;28;58695;-71
2023/12/07 05:20:16;;;;;;;;;;;;;;;;;;4981507;28;58367;-71
2023/12/07 05:22:41;;;;;;;;;;;;;;;;;;4980404;28;57937;-71
2023/12/07 05:25:06;;;;;;;;;;;;;;;;;;4980613;28;59087;-75
2023/12/07 05:27:31;;;;;;;;;;;;;;;;;;4984200;28;58461;-76
2023/12/07 05:29:56;;;;;;;;;;;;;;;;;;4981265;28;59447;-74
2023/12/07 05:32:22;;;;;;;;;;;;;;;;;;4982448;28;59158;-75
2023/12/07 05:34:47;;;;;;;;;;;;;;;;;;4983282;28;58578;-75
2023/12/07 05:37:12;;;;;;;;;;;;;;;;;;4981560;28;59584;-75
2023/12/07 05:39:37;;;;;;;;;;;;;;;;;;4979880;28;58365;-75
2023/12/07 05:42:04;;;;;;;;;;;;;;;;;;4979849;28;60881;-74
2023/12/07 05:44:29;;;;;;;;;;;;;;;;;;4977395;28;58856;-74
2023/12/07 05:46:54;;;;;;;;;;;;;;;;;;4982240;28;58405;-74
2023/12/07 05:49:22;;;;;;;;;;;;;;;;;;4978676;28;59573;-74
2023/12/07 05:51:47;;;;;;;;;;;;;;;;;;4980205;28;59031;-74
2023/12/07 05:54:12;;;;;;;;;;;;;;;;;;4978381;28;58505;-73
2023/12/07 05:56:37;;;;;;;;;;;;;;;;;;4982178;28;59479;-73
2023/12/07 05:59:02;;;;;;;;;;;;;;;;;;4981409;28;59186;-73
2023/12/07 06:01:27;;;;;;;;;;;;;;;;;;4981474;28;59345;-73
2023/12/07 06:03:52;;;;;;;;;;;;;;;;;;4982429;28;58872;-73
2023/12/07 06:06:18;;;;;;;;;;;;;;;;;;4981111;28;58370;-74
2023/12/07 06:08:44;;;;;;;;;;;;;;;;;;4980771;28;59312;-73
2023/12/07 06:11:09;;;;;;;;;;;;;;;;;;4979336;28;58853;-71
2023/12/07 06:13:34;;;;;;;;;;;;;;;;;;4979538;28;58283;-72
2023/12/07 06:16:01;;;;;;;;;;;;;;;;;;4984101;28;59336;-72
2023/12/07 06:18:26;;;;;;;;;;;;;;;;;;4980629;28;63574;-71
2023/12/07 06:20:51;;;;;;;;;;;;;;;;;;4972590;28;58535;-71
2023/12/07 06:23:16;;;;;;;;;;;;;;;;;;4974366;28;59622;-72
2023/12/07 06:25:41;;;;;;;;;;;;;;;;;;4981594;28;58431;-68
2023/12/07 06:28:06;;;;;;;;;;;;;;;;;;4980064;28;60369;-70
2023/12/07 06:30:31;;;;;;;;;;;;;;;;;;4979569;28;58549;-69
2023/12/07 06:32:56;;;;;;;;;;;;;;;;;;4982512;28;58324;-69
2023/12/07 06:35:21;;;;;;;;;;;;;;;;;;4982486;28;60454;-69
2023/12/07 06:37:46;;;;;;;;;;;;;;;;;;4976542;28;58346;-69
2023/12/07 06:40:12;;;;;;;;;;;;;;;;;;4981522;28;58356;-69
2023/12/07 06:42:37;;;;;;;;;;;;;;;;;;4980173;28;60542;-69
2023/12/07 06:45:02;;;;;;;;;;;;;;;;;;4978155;28;58436;-69
2023/12/07 06:47:28;;;;;;;;;;;;;;;;;;4979770;28;59831;-69
2023/12/07 06:49:53;;;;;;;;;;;;;;;;;;4975118;28;59688;-69
2023/12/07 06:52:18;;;;;;;;;;;;;;;;;;4976842;28;58251;-69
2023/12/07 06:54:43;;;;;;;;;;;;;;;;;;4985434;28;59384;-69
2023/12/07 06:57:08;;;;;;;;;;;;;;;;;;4982075;28;58665;-70
2023/12/07 06:59:33;;;;;;;;;;;;;;;;;;4981788;28;58515;-69
2023/12/07 07:01:58;;;;;;;;;;;;;;;;;;4979297;28;59464;-69
2023/12/07 07:04:23;;;;;;;;;;;;;;;;;;4981182;28;58444;-69
2023/12/07 07:06:48;;;;;;;;;;;;;;;;;;4980750;28;58730;-70
2023/12/07 07:09:15;;;;;;;;;;;;;;;;;;4982904;28;58595;-70
2023/12/07 07:11:40;;;;;;;;;;;;;;;;;;4981567;28;58347;-69
2023/12/07 07:14:05;;;;;;;;;;;;;;;;;;4985866;28;58452;-69
2023/12/07 07:16:30;;;;;;;;;;;;;;;;;;4983082;28;59039;-69
2023/12/07 07:18:55;;;;;;;;;;;;;;;;;;4978262;28;58629;-69
2023/12/07 07:21:20;;;;;;;;;;;;;;;;;;4981035;28;59445;-69
2023/12/07 07:23:46;;;;;;;;;;;;;;;;;;4981574;28;61070;-69
2023/12/07 07:26:11;;;;;;;;;;;;;;;;;;4979447;28;59483;-69
2023/12/07 07:28:36;;;;;;;;;;;;;;;;;;4979221;28;58856;-68
2023/12/07 07:31:02;;;;;;;;;;;;;;;;;;4982485;28;58635;-69
2023/12/07 07:33:27;;;;;;;;;;;;;;;;;;4984920;28;60403;-68
2023/12/07 07:35:52;;;;;;;;;;;;;;;;;;4981411;28;58358;-72
2023/12/07 07:38:17;;;;;;;;;;;;;;;;;;4980053;28;58460;-71
2023/12/07 07:40:43;;;;;;;;;;;;;;;;;;4980323;28;59199;-72
2023/12/07 07:43:08;;;;;;;;;;;;;;;;;;4983117;28;59265;-71
2023/12/07 07:45:33;;;;;;;;;;;;;;;;;;4981340;28;58417;-72
2023/12/07 07:47:58;;;;;;;;;;;;;;;;;;4982727;28;58903;-72
2023/12/07 07:50:23;;;;;;;;;;;;;;;;;;4979974;28;58527;-72
2023/12/07 07:52:48;;;;;;;;;;;;;;;;;;4979794;28;59197;-71
2023/12/07 07:55:13;;;;;;;;;;;;;;;;;;4977654;28;58994;-72
2023/12/07 07:57:38;;;;;;;;;;;;;;;;;;4980750;28;58352;-71
2023/12/07 08:00:05;;;;;;;;;;;;;;;;;;4976531;28;59493;-71
2023/12/07 08:02:30;;;;;;;;;;;;;;;;;;4975852;28;59901;-72
2023/12/07 08:04:55;;;;;;;;;;;;;;;;;;4982085;28;58405;-72
2023/12/07 08:07:20;;;;;;;;;;;;;;;;;;4980847;28;59296;-72
2023/12/07 08:09:45;;;;;;;;;;;;;;;;;;4980841;28;58435;-71
2023/12/07 08:12:10;;;;;;;;;;;;;;;;;;4979220;28;59566;-72
2023/12/07 08:14:35;;;;;;;;;;;;;;;;;;4977812;28;59124;-71
2023/12/07 08:17:01;;;;;;;;;;;;;;;;;;4984910;28;58433;-72
2023/12/07 08:19:26;;;;;;;;;;;;;;;;;;4976509;28;59399;-71
2023/12/07 08:21:51;;;;;;;;;;;;;;;;;;4980986;28;58347;-71
2023/12/07 08:24:16;;;;;;;;;;;;;;;;;;4983616;28;58300;-72
2023/12/07 08:26:41;;;;;;;;;;;;;;;;;;4979745;28;58477;-71
2023/12/07 08:29:06;;;;;;;;;;;;;;;;;;4978984;28;58462;-71
2023/12/07 08:31:31;;;;;;;;;;;;;;;;;;4976606;28;59612;-71
2023/12/07 08:33:56;;;;;;;;;;;;;;;;;;4982463;28;58908;-72
2023/12/07 08:36:22;;;;;;;;;;;;;;;;;;4981084;28;58429;-72
2023/12/07 08:38:47;;;;;;;;;;;;;;;;;;4978213;28;58671;-72
2023/12/07 08:41:12;;;;;;;;;;;;;;;;;;4979445;28;58897;-72
2023/12/07 08:43:37;;;;;;;;;;;;;;;;;;4982707;28;58402;-71
2023/12/07 08:46:03;;;;;;;;;;;;;;;;;;4982138;28;59804;-72
2023/12/07 08:48:28;;;;;;;;;;;;;;;;;;4977991;28;63120;-71
2023/12/07 08:50:53;;;;;;;;;;;;;;;;;;4979748;28;58303;-71
2023/12/07 08:53:18;;;;;;;;;;;;;;;;;;4978913;28;58761;-73
2023/12/07 08:55:43;;;;;;;;;;;;;;;;;;4979038;28;58847;-69
2023/12/07 08:58:10;;;;;;;;;;;;;;;;;;4981095;28;59592;-68
2023/12/07 09:00:35;;;;;;;;;;;;;;;;;;4980926;28;59442;-71
2023/12/07 09:03:01;;;;;;;;;;;;;;;;;;4978406;28;58586;-68
2023/12/07 09:05:27;;;;;;;;;;;;;;;;;;4980953;28;60533;-68
2023/12/07 09:07:52;;;;;;;;;;;;;;;;;;4979157;28;78381;-68
2023/12/07 09:10:17;;;;;;;;;;;;;;;;;;4978677;28;58509;-68
2023/12/07 09:12:42;;;;;;;;;;;;;;;;;;4975529;28;59009;-69
2023/12/07 09:15:07;;;;;;;;;;;;;;;;;;4976761;28;58383;-68
2023/12/07 09:17:33;;;;;;;;;;;;;;;;;;4980949;28;59416;-69
2023/12/07 09:19:58;;;;;;;;;;;;;;;;;;4975888;28;60134;-69
2023/12/07 09:22:23;;;;;;;;;;;;;;;;;;4977279;28;58422;-68
2023/12/07 09:24:48;;;;;;;;;;;;;;;;;;4979151;28;59404;-69
2023/12/07 09:27:13;;;;;;;;;;;;;;;;;;4977855;28;60260;-68
2023/12/07 09:29:38;;;;;;;;;;;;;;;;;;4982533;28;58619;-69
2023/12/07 09:32:03;;;;;;;;;;;;;;;;;;4977814;28;59230;-69
2023/12/07 09:34:28;;;;;;;;;;;;;;;;;;4982362;28;58428;-69
2023/12/07 09:36:53;;;;;;;;;;;;;;;;;;4981233;28;59578;-69
2023/12/07 09:39:19;;;;;;;;;;;;;;;;;;4975123;28;59988;-69
2023/12/07 09:41:47;;;;;;;;;;;;;;;;;;4978536;28;58362;-68
2023/12/07 09:44:12;;;;;;;;;;;;;;;;;;4978944;28;59559;-69
2023/12/07 09:46:37;;;;;;;;;;;;;;;;;;4975965;28;58470;-69
2023/12/07 09:49:02;;;;;;;;;;;;;;;;;;4980511;28;58566;-69
2023/12/07 09:51:27;;;;;;;;;;;;;;;;;;4975425;28;59701;-68
2023/12/07 09:53:52;;;;;;;;;;;;;;;;;;4980912;28;58916;-68
2023/12/07 09:56:17;;;;;;;;;;;;;;;;;;4981808;28;59491;-68
2023/12/07 09:58:42;;;;;;;;;;;;;;;;;;4977844;28;58564;-68
2023/12/07 10:01:08;;;;;;;;;;;;;;;;;;4981482;28;58314;-68
2023/12/07 10:03:33;;;;;;;;;;;;;;;;;;4982274;28;58402;-68
2023/12/07 10:05:59;;;;;;;;;;;;;;;;;;4981180;28;58785;-72
2023/12/07 10:08:24;;;;;;;;;;;;;;;;;;4979151;28;58570;-72
2023/12/07 10:10:49;;;;;;;;;;;;;;;;;;4977953;28;59210;-73
2023/12/07 10:13:14;;;;;;;;;;;;;;;;;;4977496;28;59317;-71
2023/12/07 10:15:39;;;;;;;;;;;;;;;;;;4977401;28;58370;-71
2023/12/07 10:18:06;;;;;;;;;;;;;;;;;;4974969;28;58511;-72
2023/12/07 10:20:33;;;;;;;;;;;;;;;;;;4972710;28;59522;-71
2023/12/07 10:22:58;;;;;;;;;;;;;;;;;;4976907;28;59291;-71
2023/12/07 10:25:23;;;;;;;;;;;;;;;;;;4978432;28;59318;-71
2023/12/07 10:27:48;;;;;;;;;;;;;;;;;;4978838;28;59331;-71
2023/12/07 10:30:14;;;;;;;;;;;;;;;;;;4961041;28;59810;-71
2023/12/07 10:32:39;;;;;;;;;;;;;;;;;;4975022;28;58967;-71
2023/12/07 10:35:04;;;;;;;;;;;;;;;;;;4983913;28;58497;-72
2023/12/07 10:37:29;;;;;;;;;;;;;;;;;;4984034;28;59443;-72
2023/12/07 10:39:55;;;;;;;;;;;;;;;;;;4984755;28;58374;-71
2023/12/07 10:42:20;;;;;;;;;;;;;;;;;;4984380;28;59593;-72
2023/12/07 10:44:45;;;;;;;;;;;;;;;;;;4979866;28;58998;-72
2023/12/07 10:47:10;;;;;;;;;;;;;;;;;;4984243;28;58391;-72
2023/12/07 10:49:35;;;;;;;;;;;;;;;;;;4975796;28;59319;-72
2023/12/07 10:52:00;;;;;;;;;;;;;;;;;;4976247;28;58941;-72
2023/12/07 10:54:26;;;;;;;;;;;;;;;;;;4981001;28;58369;-72
2023/12/07 10:56:51;;;;;;;;;;;;;;;;;;4979879;28;59477;-71
2023/12/07 10:59:16;;;;;;;;;;;;;;;;;;4980609;28;59594;-72
2023/12/07 11:01:42;;;;;;;;;;;;;;;;;;4982065;28;59209;-71
2023/12/07 11:04:08;;;;;;;;;;;;;;;;;;4976939;28;58846;-71
2023/12/07 11:06:33;;;;;;;;;;;;;;;;;;4981983;28;58380;-69
2023/12/07 11:08:58;;;;;;;;;;;;;;;;;;4979626;28;59395;-68
2023/12/07 11:11:24;;;;;;;;;;;;;;;;;;4985931;28;58578;-68
2023/12/07 11:13:49;;;;;;;;;;;;;;;;;;4986343;28;58298;-68
2023/12/07 11:16:15;;;;;;;;;;;;;;;;;;4981801;28;59597;-71
2023/12/07 11:18:40;;;;;;;;;;;;;;;;;;4983841;28;59270;-71
2023/12/07 11:21:05;;;;;;;;;;;;;;;;;;4978288;28;59242;-71
2023/12/07 11:23:30;;;;;;;;;;;;;;;;;;4977824;28;58874;-72
2023/12/07 11:25:55;;;;;;;;;;;;;;;;;;4993157;28;58496;-72
2023/12/07 11:28:20;;;;;;;;;;;;;;;;;;4979723;28;59549;-72
2023/12/07 11:30:45;;;;;;;;;;;;;;;;;;4981234;28;59335;-71
2023/12/07 11:33:12;;;;;;;;;;;;;;;;;;4984109;28;58518;-71
2023/12/07 11:35:37;;;;;;;;;;;;;;;;;;4978425;28;59372;-71
2023/12/07 11:38:03;;;;;;;;;;;;;;;;;;4976860;28;58735;-71
2023/12/07 11:40:28;;;;;;;;;;;;;;;;;;4980749;28;58482;-71
2023/12/07 11:42:53;;;;;;;;;;;;;;;;;;4978405;28;59294;-71
2023/12/07 11:45:18;;;;;;;;;;;;;;;;;;4976483;28;58486;-72
2023/12/07 11:47:48;;;;;;;;;;;;;;;;;;4977568;28;59430;-71
2023/12/07 11:50:13;;;;;;;;;;;;;;;;;;4976589;28;59255;-72
2023/12/07 11:52:38;;;;;;;;;;;;;;;;;;4977750;28;58516;-71
2023/12/07 11:55:03;;;;;;;;;;;;;;;;;;4980583;28;59453;-71
2023/12/07 11:57:28;;;;;;;;;;;;;;;;;;5005365;28;59004;-71
2023/12/07 11:59:53;;;;;;;;;;;;;;;;;;4978884;28;58495;-71
2023/12/07 12:02:18;;;;;;;;;;;;;;;;;;4982974;28;59243;-71
2023/12/07 12:04:43;;;;;;;;;;;;;;;;;;4979161;28;58510;-71
2023/12/07 12:07:08;;;;;;;;;;;;;;;;;;4978729;28;59361;-71
2023/12/07 12:09:34;;;;;;;;;;;;;;;;;;4980623;28;58987;-71
2023/12/07 12:12:00;;;;;;;;;;;;;;;;;;4975748;28;59167;-71
2023/12/07 12:14:25;;;;;;;;;;;;;;;;;;4974314;28;59585;-71
2023/12/07 12:16:50;;;;;;;;;;;;;;;;;;4978842;28;58387;-71
2023/12/07 12:19:15;;;;;;;;;;;;;;;;;;4939751;28;1042043;-71
2023/12/07 12:21:40;;;;;;;;;;;;;;;;;;4980904;28;59398;-71
2023/12/07 12:24:05;;;;;;;;;;;;;;;;;;4982388;28;58850;-71
2023/12/07 12:26:30;;;;;;;;;;;;;;;;;;4978897;28;59325;-71
2023/12/07 12:28:56;;;;;;;;;;;;;;;;;;4980488;28;58509;-72
2023/12/07 12:31:22;;;;;;;;;;;;;;;;;;4977813;28;58301;-71
2023/12/07 12:33:47;;;;;;;;;;;;;;;;;;4983027;28;58624;-71
2023/12/07 12:36:12;;;;;;;;;;;;;;;;;;4978826;28;58921;-71
2023/12/07 12:38:39;;;;;;;;;;;;;;;;;;4983097;28;58502;-70
2023/12/07 12:41:04;;;;;;;;;;;;;;;;;;4978041;28;60410;-70
2023/12/07 12:43:29;;;;;;;;;;;;;;;;;;4978586;28;58371;-71
2023/12/07 12:45:54;;;;;;;;;;;;;;;;;;4982685;28;58399;-70
2023/12/07 12:48:19;;;;;;;;;;;;;;;;;;4979990;28;59812;-71
2023/12/07 12:50:44;;;;;;;;;;;;;;;;;;4978078;28;58365;-71
2023/12/07 12:53:13;;;;;;;;;;;;;;;;;;4979878;28;59558;-70
2023/12/07 12:55:38;;;;;;;;;;;;;;;;;;4975206;28;59004;-69
2023/12/07 12:58:04;;;;;;;;;;;;;;;;;;4983682;28;58450;-70
2023/12/07 13:00:29;;;;;;;;;;;;;;;;;;4978403;28;64083;-71
2023/12/07 13:02:54;;;;;;;;;;;;;;;;;;4979927;28;58874;-71
2023/12/07 13:05:19;;;;;;;;;;;;;;;;;;4978371;28;58561;-70
2023/12/07 13:07:44;;;;;;;;;;;;;;;;;;4980959;28;60284;-70
2023/12/07 13:10:10;;;;;;;;;;;;;;;;;;4979514;28;58332;-71
2023/12/07 13:12:35;;;;;;;;;;;;;;;;;;4981797;28;59581;-71
2023/12/07 13:15:00;;;;;;;;;;;;;;;;;;4979189;28;58736;-72
2023/12/07 13:17:26;;;;;;;;;;;;;;;;;;4979471;28;58388;-71
2023/12/07 13:19:51;;;;;;;;;;;;;;;;;;4981322;28;59439;-72
2023/12/07 13:22:16;;;;;;;;;;;;;;;;;;4976609;28;59714;-70
2023/12/07 13:24:41;;;;;;;;;;;;;;;;;;4981872;28;58268;-71
2023/12/07 13:27:06;;;;;;;;;;;;;;;;;;4978710;28;58430;-71
2023/12/07 13:29:31;;;;;;;;;;;;;;;;;;4978734;28;58655;-70
2023/12/07 13:31:58;;;;;;;;;;;;;;;;;;4981778;28;59524;-71
2023/12/07 13:34:23;;;;;;;;;;;;;;;;;;4973335;28;58885;-70
2023/12/07 13:36:49;;;;;;;;;;;;;;;;;;4977325;28;58457;-72
2023/12/07 13:39:14;;;;;;;;;;;;;;;;;;4979186;28;59445;-71
2023/12/07 13:41:39;;;;;;;;;;;;;;;;;;4976727;28;58954;-71
2023/12/07 13:44:05;;;;;;;;;;;;;;;;;;4984444;28;58307;-72
2023/12/07 13:46:31;;;;;;;;;;;;;;;;;;4978407;28;59339;-72
2023/12/07 13:48:56;;;;;;;;;;;;;;;;;;4980071;28;58969;-71
2023/12/07 13:51:22;;;;;;;;;;;;;;;;;;4982097;28;60105;-71
2023/12/07 13:53:48;;;;;;;;;;;;;;;;;;4977385;28;59919;-71
2023/12/07 13:56:13;;;;;;;;;;;;;;;;;;4980095;28;58305;-71
2023/12/07 13:58:39;;;;;;;;;;;;;;;;;;4980246;28;58516;-71
2023/12/07 14:01:04;;;;;;;;;;;;;;;;;;4978254;28;58877;-72
2023/12/07 14:03:29;;;;;;;;;;;;;;;;;;4979262;28;58201;-71
2023/12/07 14:05:54;;;;;;;;;;;;;;;;;;4983094;28;59324;-71
2023/12/07 14:08:19;;;;;;;;;;;;;;;;;;4981244;28;58427;-71
2023/12/07 14:10:44;;;;;;;;;;;;;;;;;;4979225;28;58202;-71
2023/12/07 14:13:09;;;;;;;;;;;;;;;;;;4978135;28;59003;-71
2023/12/07 14:15:35;;;;;;;;;;;;;;;;;;4978749;28;58337;-71
2023/12/07 14:18:00;;;;;;;;;;;;;;;;;;4980382;28;60173;-71
2023/12/07 14:20:27;;;;;;;;;;;;;;;;;;4976932;28;58762;-71
2023/12/07 14:22:52;;;;;;;;;;;;;;;;;;4982802;28;58208;-72
2023/12/07 14:25:18;;;;;;;;;;;;;;;;;;4980252;28;59770;-71
2023/12/07 14:27:43;;;;;;;;;;;;;;;;;;4976248;28;58913;-72
2023/12/07 14:30:10;;;;;;;;;;;;;;;;;;4979169;28;58393;-71
2023/12/07 14:32:35;;;;;;;;;;;;;;;;;;4983236;28;60236;-71
2023/12/07 14:35:00;;;;;;;;;;;;;;;;;;4982422;28;58429;-71
2023/12/07 14:37:25;;;;;;;;;;;;;;;;;;4981090;28;59492;-71
2023/12/07 14:39:50;;;;;;;;;;;;;;;;;;4978203;28;58757;-71
2023/12/07 14:42:15;;;;;;;;;;;;;;;;;;4981176;28;58323;-71
2023/12/07 14:44:40;;;;;;;;;;;;;;;;;;4981576;28;58883;-68
2023/12/07 14:47:07;;;;;;;;;;;;;;;;;;4978951;28;58738;-68
2023/12/07 14:49:32;;;;;;;;;;;;;;;;;;4978092;28;58374;-68
2023/12/07 14:51:58;;;;;;;;;;;;;;;;;;4978846;28;60190;-68
2023/12/07 14:54:23;;;;;;;;;;;;;;;;;;4977452;28;60367;-68
2023/12/07 14:56:49;;;;;;;;;;;;;;;;;;4977565;28;60435;-69
2023/12/07 14:59:14;;;;;;;;;;;;;;;;;;4980248;28;58723;-68
2023/12/07 15:01:40;;;;;;;;;;;;;;;;;;4977015;28;58454;-68
2023/12/07 15:04:05;;;;;;;;;;;;;;;;;;4980446;28;59621;-68
2023/12/07 15:06:31;;;;;;;;;;;;;;;;;;4979262;28;58425;-68
2023/12/07 15:08:56;;;;;;;;;;;;;;;;;;4979636;28;58331;-68
2023/12/07 15:11:21;;;;;;;;;;;;;;;;;;4982453;28;60358;-68
2023/12/07 15:13:46;;;;;;;;;;;;;;;;;;4979976;28;58401;-68
2023/12/07 15:16:12;;;;;;;;;;;;;;;;;;4981310;28;58392;-74
2023/12/07 15:18:37;;;;;;;;;;;;;;;;;;4984351;28;59149;-71
2023/12/07 15:21:02;;;;;;;;;;;;;;;;;;4984936;28;58379;-71
2023/12/07 15:23:27;;;;;;;;;;;;;;;;;;4986079;28;59723;-70
2023/12/07 15:25:52;;;;;;;;;;;;;;;;;;4985707;28;58956;-68
2023/12/07 15:28:17;;;;;;;;;;;;;;;;;;4986415;28;58478;-68
2023/12/07 15:30:43;;;;;;;;;;;;;;;;;;4983982;28;59532;-71
2023/12/07 15:33:08;;;;;;;;;;;;;;;;;;4985117;28;60358;-69
2023/12/07 15:35:33;;;;;;;;;;;;;;;;;;4986837;28;58378;-69
2023/12/07 15:37:59;;;;;;;;;;;;;;;;;;4985046;28;60034;-69
2023/12/07 15:40:24;;;;;;;;;;;;;;;;;;4985290;28;58691;-69
2023/12/07 15:42:49;;;;;;;;;;;;;;;;;;4985615;28;58490;-69
2023/12/07 15:45:14;;;;;;;;;;;;;;;;;;4985716;28;58886;-69
2023/12/07 15:47:39;;;;;;;;;;;;;;;;;;4983656;28;58182;-69
2023/12/07 15:50:05;;;;;;;;;;;;;;;;;;4985127;28;59503;-71
2023/12/07 15:52:30;;;;;;;;;;;;;;;;;;4982497;28;58989;-69
2023/12/07 15:54:55;;;;;;;;;;;;;;;;;;4987319;28;58474;-71
2023/12/07 15:57:20;;;;;;;;;;;;;;;;;;4984595;28;59207;-70
2023/12/07 15:59:46;;;;;;;;;;;;;;;;;;4983780;28;58447;-70
2023/12/07 16:02:12;;;;;;;;;;;;;;;;;;4986241;28;58741;-70
2023/12/07 16:04:37;;;;;;;;;;;;;;;;;;4986968;28;58941;-70
2023/12/07 16:07:03;;;;;;;;;;;;;;;;;;4987346;28;58397;-71
2023/12/07 16:09:28;;;;;;;;;;;;;;;;;;4987939;28;63340;-70
2023/12/07 16:11:54;;;;;;;;;;;;;;;;;;4987208;28;58885;-70
2023/12/07 16:14:19;;;;;;;;;;;;;;;;;;4985994;28;58414;-69
2023/12/07 16:16:44;;;;;;;;;;;;;;;;;;4984356;28;59339;-70
2023/12/07 16:19:09;;;;;;;;;;;;;;;;;;4982934;28;58928;-70
2023/12/07 16:21:37;;;;;;;;;;;;;;;;;;4982306;28;59507;-70
2023/12/07 16:24:02;;;;;;;;;;;;;;;;;;4982663;28;60361;-71
2023/12/07 16:26:27;;;;;;;;;;;;;;;;;;4984897;28;58383;-70
2023/12/07 16:28:52;;;;;;;;;;;;;;;;;;4982118;28;59575;-70
2023/12/07 16:31:17;;;;;;;;;;;;;;;;;;4982053;28;58971;-70